createdAt,value
2023-01-13T00:04:42.752Z,99547.72
2023-01-13T00:12:01.065Z,99529.34
2023-01-13T00:19:19.290Z,99538.03
2023-01-13T00:26:39.097Z,99528.84
2023-01-13T00:33:58.653Z,99535.34
2023-01-13T00:41:18.364Z,99531.59
2023-01-13T00:48:39.063Z,99526.84
2023-01-13T00:56:01.533Z,99517.22
2023-01-13T01:03:19.922Z,99518.03
2023-01-13T01:10:39.716Z,99511.13
2023-01-13T01:17:57.949Z,99500.31
2023-01-13T01:25:16.378Z,99489.38
2023-01-13T01:32:36.614Z,99479.06
2023-01-13T01:39:55.141Z,99468.41
2023-01-13T01:47:15.755Z,99457.13
2023-01-13T01:54:40.866Z,99460.41
2023-01-13T02:01:59.267Z,99450.59
2023-01-13T02:09:17.842Z,99435.00
2023-01-13T02:16:39.264Z,99441.91
2023-01-13T02:24:23.791Z,99439.78
2023-01-13T02:31:45.198Z,99422.22
2023-01-13T02:39:08.546Z,99455.53
2023-01-13T02:46:29.144Z,99442.25
2023-01-13T02:53:52.282Z,99442.06
2023-01-13T03:01:10.938Z,99441.59
2023-01-13T03:08:39.610Z,99439.16
2023-01-13T03:16:07.466Z,99433.09
2023-01-13T03:23:32.124Z,99430.97
2023-01-13T03:30:53.132Z,99424.72
2023-01-13T03:38:16.267Z,99422.25
2023-01-13T03:45:36.428Z,99409.13
2023-01-13T03:52:58.191Z,99418.78
2023-01-13T04:00:19.581Z,99413.38
2023-01-13T04:07:46.384Z,99416.00
2023-01-13T04:15:04.588Z,99410.13
2023-01-13T04:22:24.253Z,99395.69
2023-01-13T04:29:42.416Z,99404.56
2023-01-13T04:37:00.647Z,99398.13
2023-01-13T04:44:20.232Z,99394.22
2023-01-13T04:51:38.431Z,99399.94
2023-01-13T04:58:56.680Z,99388.97
2023-01-13T05:06:16.398Z,99389.28
2023-01-13T05:13:51.970Z,99381.13
2023-01-13T05:21:30.136Z,99384.41
2023-01-13T05:28:49.716Z,99390.63
2023-01-13T05:36:08.645Z,99389.81
2023-01-13T05:43:27.154Z,99391.94
2023-01-13T05:50:47.180Z,99396.03
2023-01-13T05:58:05.346Z,99395.22
2023-01-13T06:05:23.544Z,99396.50
2023-01-13T06:12:43.402Z,99395.38
2023-01-13T06:20:01.798Z,99394.22
2023-01-13T06:27:20.176Z,99387.81
2023-01-13T06:34:40.431Z,99392.22
2023-01-13T06:42:17.023Z,99389.94
2023-01-13T06:49:35.449Z,99395.84
2023-01-13T06:56:55.217Z,99385.38
2023-01-13T07:04:24.112Z,99394.53
2023-01-13T07:11:42.524Z,99386.50
2023-01-13T07:19:02.744Z,99402.94
2023-01-13T07:26:21.128Z,99389.31
2023-01-13T07:33:39.339Z,99401.75
2023-01-13T07:41:19.168Z,99393.72
2023-01-13T07:48:37.564Z,99396.03
2023-01-13T07:55:58.278Z,99408.00
2023-01-13T08:03:16.524Z,99392.91
2023-01-13T08:10:34.938Z,99400.44
2023-01-13T08:17:54.599Z,99402.06
2023-01-13T08:25:12.822Z,99400.91
2023-01-13T08:32:31.097Z,99406.78
2023-01-13T08:39:50.769Z,99408.53
2023-01-13T08:47:09.275Z,99403.31
2023-01-13T08:54:27.469Z,99420.38
2023-01-13T09:01:47.545Z,99415.06
2023-01-13T09:09:06.045Z,99424.75
2023-01-13T09:16:24.287Z,99427.19
2023-01-13T09:23:43.960Z,99432.63
2023-01-13T09:31:02.788Z,99424.47
2023-01-13T09:38:21.066Z,99415.94
2023-01-13T09:45:43.126Z,99415.75
2023-01-13T09:53:01.929Z,99415.69
2023-01-13T10:00:23.309Z,99413.41
2023-01-13T10:07:49.526Z,99389.78
2023-01-13T10:15:15.270Z,99397.25
2023-01-13T10:22:48.691Z,99386.41
2023-01-13T10:30:17.080Z,99389.94
2023-01-13T10:37:35.389Z,99373.88
2023-01-13T10:44:56.350Z,99364.94
2023-01-13T10:52:27.393Z,99366.44
2023-01-13T10:59:45.657Z,99364.66
2023-01-13T11:07:06.961Z,99350.13
2023-01-13T11:14:36.984Z,99352.09
2023-01-13T11:21:57.899Z,99362.94
2023-01-13T11:29:22.352Z,99351.53
2023-01-13T11:36:43.798Z,99348.25
2023-01-13T11:44:11.371Z,99328.69
2023-01-13T11:51:41.594Z,99337.59
2023-01-13T11:59:25.710Z,99346.50
2023-01-13T12:06:46.262Z,99343.84
2023-01-13T12:14:16.210Z,99332.50
2023-01-13T12:21:36.086Z,99331.25
2023-01-13T12:28:58.466Z,99335.13
2023-01-13T12:36:23.551Z,99336.72
2023-01-13T12:44:04.338Z,99326.78
2023-01-13T12:51:25.942Z,99330.00
2023-01-13T12:58:44.301Z,99321.91
2023-01-13T13:06:15.817Z,99337.91
2023-01-13T13:13:47.099Z,99351.69
2023-01-13T13:21:08.816Z,99349.66
2023-01-13T13:28:27.340Z,99347.28
2023-01-13T13:36:08.414Z,99350.38
2023-01-13T13:43:44.313Z,99360.00
2023-01-13T13:51:05.983Z,99365.44
2023-01-13T13:58:28.515Z,99358.41
2023-01-13T14:05:55.303Z,99382.56
2023-01-13T14:13:20.423Z,99388.13
2023-01-13T14:20:40.745Z,99406.47
2023-01-13T14:28:02.034Z,99423.34
2023-01-13T14:35:20.450Z,99440.06
2023-01-13T14:42:40.303Z,99434.41
2023-01-13T14:50:02.704Z,99439.50
2023-01-13T14:57:28.548Z,99448.03
2023-01-13T15:04:48.233Z,99445.38
2023-01-13T15:12:17.921Z,99457.97
2023-01-13T15:19:36.215Z,99449.13
2023-01-13T15:26:56.472Z,99447.97
2023-01-13T15:34:14.775Z,99458.78
2023-01-13T15:41:51.035Z,99451.69
2023-01-13T15:49:17.637Z,99465.69
2023-01-13T15:56:37.623Z,99457.31
2023-01-13T16:03:56.653Z,99470.94
2023-01-13T16:11:17.497Z,99479.81
2023-01-13T16:18:35.752Z,99497.00
2023-01-13T16:25:54.463Z,99490.41
2023-01-13T16:33:15.275Z,99492.38
2023-01-13T16:40:35.658Z,99526.78
2023-01-13T16:47:54.151Z,99518.88
2023-01-13T16:55:13.765Z,99524.09
2023-01-13T17:02:32.178Z,99534.03
2023-01-13T17:09:50.717Z,99549.28
2023-01-13T17:17:21.397Z,99560.28
2023-01-13T17:24:39.696Z,99563.69
2023-01-13T17:31:58.150Z,99555.47
2023-01-13T17:39:19.284Z,99550.66
2023-01-13T17:46:37.623Z,99567.44
2023-01-13T17:53:55.913Z,99583.34
2023-01-13T18:01:17.274Z,99588.94
2023-01-13T18:08:35.691Z,99593.50
2023-01-13T18:16:02.000Z,99590.03
2023-01-13T18:23:39.139Z,99596.47
2023-01-13T18:30:57.428Z,99605.50
2023-01-13T18:38:16.125Z,99603.63
2023-01-13T18:45:35.783Z,99614.28
2023-01-13T18:52:54.325Z,99630.81
2023-01-13T19:00:16.079Z,99634.47
2023-01-13T19:07:36.346Z,99646.34
2023-01-13T19:14:55.373Z,99651.47
2023-01-13T19:22:14.743Z,99659.03
2023-01-13T19:29:34.472Z,99667.84
2023-01-13T19:36:54.123Z,99675.53
2023-01-13T19:44:30.610Z,99683.50
2023-01-13T19:51:50.556Z,99679.97
2023-01-13T19:59:09.087Z,99690.81
2023-01-13T20:06:27.437Z,99697.47
2023-01-13T20:13:52.351Z,99700.91
2023-01-13T20:21:10.729Z,99722.00
2023-01-13T20:28:29.102Z,99720.34
2023-01-13T20:35:58.005Z,99734.00
2023-01-13T20:43:17.668Z,99736.16
2023-01-13T20:50:36.049Z,99721.28
2023-01-13T20:57:55.833Z,99754.75
2023-01-13T21:05:15.715Z,99767.91
2023-01-13T21:12:51.462Z,99773.72
2023-01-13T21:20:14.316Z,99781.03
2023-01-13T21:27:32.940Z,99800.78
2023-01-13T21:34:51.191Z,99807.66
2023-01-13T21:42:32.166Z,99794.09
2023-01-13T21:49:50.626Z,99792.78
2023-01-13T21:57:08.799Z,99801.50
2023-01-13T22:04:28.574Z,99802.34
2023-01-13T22:11:46.793Z,99814.31
2023-01-13T22:19:05.253Z,99813.50
2023-01-13T22:26:24.893Z,99826.44
2023-01-13T22:33:43.629Z,99836.59
2023-01-13T22:41:03.712Z,99835.84
2023-01-13T22:48:23.351Z,99841.66
2023-01-13T22:55:41.642Z,99845.91
2023-01-13T23:02:59.953Z,99860.88
2023-01-13T23:10:19.845Z,99864.16
2023-01-13T23:17:38.232Z,99857.28
2023-01-13T23:24:56.628Z,99862.91
2023-01-13T23:32:16.252Z,99882.19
2023-01-13T23:39:34.590Z,99871.38
2023-01-13T23:46:52.852Z,99871.94
2023-01-13T23:54:12.535Z,99874.28
